CDT,Max TemperatureF,Mean TemperatureF,Min TemperatureF,Max Dew PointF,MeanDew PointF,Min DewpointF,Max Humidity, Mean Humidity, Min Humidity, Max Sea Level PressureIn, Mean Sea Level PressureIn, Min Sea Level PressureIn, Max VisibilityMiles, Mean VisibilityMiles, Min VisibilityMiles, Max Wind SpeedMPH, Mean Wind SpeedMPH, Max Gust SpeedMPH,PrecipitationIn, CloudCover, Events, WindDirDegrees
2012-10-1,84,75,66,72,68,61,93,76,58,29.70,29.61,29.53,10,8,2,24,12,36,0.48,7,Rain,174
2012-10-2,66,61,55,63,59,54,93,83,73,30.03,29.83,29.67,10,7,2,12,5,15,0.01,7,Rain,240
2012-10-3,76,65,53,59,55,52,100,73,46,30.21,30.13,30.03,10,10,9,9,1,12,0.00,1,,152
2012-10-4,82,69,56,63,58,55,100,71,42,30.31,30.24,30.21,10,9,7,10,2,14,0.00,0,,354
2012-10-5,83,70,56,61,57,54,100,69,37,30.21,30.12,30.03,10,9,7,12,2,15,0.00,0,,169
2012-10-6,70,62,54,62,57,52,100,89,78,30.10,30.05,30.01,10,9,6,15,6,20,0.09,5,Rain-Thunderstorm,350
2012-10-7,61,55,48,52,46,42,93,72,51,30.19,30.13,30.05,10,10,10,18,7,22,0.00,5,,358
2012-10-8,64,57,49,48,46,44,93,74,55,30.22,30.16,30.11,10,10,10,14,6,17,0.00,6,,12
2012-10-9,71,58,45,52,47,44,100,70,40,30.18,30.12,30.06,10,10,10,8,1,10,0.00,0,,5
2012-10-10,77,63,49,58,54,48,93,73,53,30.21,30.16,30.10,10,10,10,14,4,20,0.00,3,,320
2012-10-11,77,64,50,58,53,47,96,73,49,30.30,30.25,30.20,10,10,10,10,2,13,0.00,3,,46
2012-10-12,82,70,58,64,60,57,93,72,51,30.33,30.25,30.22,10,10,9,15,3,20,0.00,2,,15
2012-10-13,82,74,65,63,61,59,87,67,47,30.31,30.23,30.16,10,10,10,15,8,22,0.00,2,,108
2012-10-14,80,73,65,65,62,56,81,70,58,30.23,30.10,29.97,10,9,2,23,9,37,0.71,5,Rain-Thunderstorm,177
2012-10-15,77,65,52,66,57,42,100,74,31,30.03,29.99,29.95,10,8,2,18,6,23,0.00,3,Rain-Thunderstorm,313
2012-10-16,74,61,48,55,49,42,96,66,35,30.03,29.97,29.90,10,10,10,8,2,10,0.00,0,,68
2012-10-17,77,65,52,54,49,41,93,61,29,29.93,29.85,29.74,10,10,10,17,7,28,0.00,0,,146
2012-10-18,75,65,54,63,55,36,100,64,27,29.88,29.81,29.73,10,8,2,15,6,18,0.54,5,Rain-Thunderstorm,232
2012-10-19,72,59,46,46,38,28,86,53,20,29.88,29.84,29.79,10,10,7,29,7,36,0.00,0,,243
2012-10-20,70,58,45,50,45,41,93,67,40,30.02,29.97,29.89,10,10,10,15,3,20,0.00,0,,291
2012-10-21,78,63,47,53,48,44,100,66,31,30.17,30.12,30.03,10,10,10,7,1,13,0.00,0,,100
2012-10-22,80,66,51,54,50,43,96,61,26,30.23,30.17,30.12,10,10,10,9,1,13,0.00,0,,163
2012-10-23,79,66,53,54,51,46,93,63,32,30.21,30.13,30.09,10,10,5,10,3,14,0.00,0,,156
2012-10-24,80,66,52,59,54,49,96,69,42,30.18,30.12,30.06,10,10,9,8,2,21,0.00,0,,143
2012-10-25,80,68,56,61,57,54,93,68,42,30.11,30.05,30.01,10,10,10,14,3,16,0.00,1,,154
2012-10-26,82,68,53,63,58,50,90,68,45,30.06,29.99,29.93,10,10,10,16,6,21,0.00,2,,351
2012-10-27,53,51,49,48,45,44,86,82,77,30.03,29.98,29.94,10,10,10,21,11,24,0.00,8,,343
2012-10-28,61,52,43,45,39,32,80,59,37,30.05,29.97,29.92,10,10,8,24,12,33,0.00,5,,339
2012-10-29,57,47,37,33,27,21,82,54,26,30.10,30.03,29.97,10,10,10,24,11,31,0.00,0,,331
2012-10-30,60,49,38,31,26,21,70,47,24,29.95,29.92,29.86,10,10,10,26,11,36,0.00,0,,283
2012-10-31,67,52,36,38,34,30,92,60,28,30.00,29.96,29.91,10,10,9,18,5,23,0.00,0,,279